createdAt,value
2018-08-16T00:00:10.023Z,1001.25
2018-08-16T00:01:19.854Z,1001.23
2018-08-16T00:02:29.947Z,1001.25
2018-08-16T00:03:40.011Z,1001.24
2018-08-16T00:04:50.094Z,1001.22
2018-08-16T00:06:00.157Z,1001.23
2018-08-16T00:07:10.240Z,1001.25
2018-08-16T00:08:20.326Z,1001.24
2018-08-16T00:09:30.452Z,1001.26
2018-08-16T00:10:40.282Z,1001.29
2018-08-16T00:11:50.376Z,1001.31
2018-08-16T00:13:00.462Z,1001.26
2018-08-16T00:14:10.537Z,1001.33
2018-08-16T00:15:20.634Z,1001.32
2018-08-16T00:16:30.700Z,1001.3
2018-08-16T00:17:40.794Z,1001.32
2018-08-16T00:18:50.876Z,1001.28
2018-08-16T00:20:00.967Z,1001.27
2018-08-16T00:21:10.812Z,1001.31
2018-08-16T00:22:20.370Z,1001.29
2018-08-16T00:23:30.428Z,1001.25
2018-08-16T00:24:40.248Z,1001.27
2018-08-16T00:25:50.063Z,1001.26
2018-08-16T00:27:00.482Z,1001.27
2018-08-16T00:28:10.561Z,1001.24
2018-08-16T00:29:20.622Z,1001.27
2018-08-16T00:30:30.448Z,1001.27
2018-08-16T00:31:40.526Z,1001.26
2018-08-16T00:32:50.408Z,1001.25
2018-08-16T00:34:00.483Z,1001.22
2018-08-16T00:35:10.705Z,1001.22
2018-08-16T00:36:20.526Z,1001.24
2018-08-16T00:37:30.327Z,1001.22
2018-08-16T00:38:40.160Z,1001.25
2018-08-16T00:39:50.227Z,1001.22
2018-08-16T00:41:00.042Z,1001.24
2018-08-16T00:42:10.123Z,1001.22
2018-08-16T00:43:20.237Z,1001.26
2018-08-16T00:44:31.033Z,1001.24
2018-08-16T00:45:40.850Z,1001.2
2018-08-16T00:46:50.934Z,1001.2
2018-08-16T00:48:01.017Z,1001.15
2018-08-16T00:49:11.110Z,1001.19
2018-08-16T00:50:21.252Z,1001.16
2018-08-16T00:51:31.328Z,1001.17
2018-08-16T00:52:41.406Z,1001.16
2018-08-16T00:53:51.243Z,1001.12
2018-08-16T00:55:01.329Z,1001.17
2018-08-16T00:56:11.456Z,1001.16
2018-08-16T00:57:21.733Z,1001.2
2018-08-16T00:58:31.559Z,1001.21
2018-08-16T00:59:41.675Z,1001.23
2018-08-16T01:00:51.558Z,1001.23
2018-08-16T01:02:01.690Z,1001.25
2018-08-16T01:03:11.770Z,1001.23
2018-08-16T01:04:21.625Z,1001.25
2018-08-16T01:05:31.699Z,1001.24
2018-08-16T01:06:41.529Z,1001.24
2018-08-16T01:07:51.623Z,1001.21
2018-08-16T01:09:01.717Z,1001.22
2018-08-16T01:10:11.559Z,1001.22
2018-08-16T01:11:21.658Z,1001.22
2018-08-16T01:12:31.733Z,1001.21
2018-08-16T01:13:41.568Z,1001.21
2018-08-16T01:14:51.641Z,1001.16
2018-08-16T01:16:01.947Z,1001.15
2018-08-16T01:17:12.033Z,1001.15
2018-08-16T01:18:21.871Z,1001.15
2018-08-16T01:19:31.419Z,1001.17
2018-08-16T01:20:41.257Z,1001.16
2018-08-16T01:21:51.381Z,1001.17
2018-08-16T01:23:01.470Z,1001.15
2018-08-16T01:24:11.288Z,1001.15
2018-08-16T01:25:21.369Z,1001.12
2018-08-16T01:26:31.181Z,1001.12
2018-08-16T01:27:41.249Z,1001.09
2018-08-16T01:28:51.324Z,1001.08
2018-08-16T01:30:01.405Z,1001.08
2018-08-16T01:31:11.223Z,1001.08
2018-08-16T01:32:21.312Z,1001.1
2018-08-16T01:33:31.393Z,1001.08
2018-08-16T01:34:41.474Z,1001.09
2018-08-16T01:35:51.590Z,1001.1
2018-08-16T01:37:01.682Z,1001.13
2018-08-16T01:38:11.826Z,1001.09
2018-08-16T01:39:21.654Z,1001.02
2018-08-16T01:40:31.464Z,1001.04
2018-08-16T01:41:41.579Z,1001.01
2018-08-16T01:42:51.651Z,1001.02
2018-08-16T01:44:01.774Z,1000.99
2018-08-16T01:45:11.658Z,1001.01
2018-08-16T01:46:21.208Z,1001.01
2018-08-16T01:47:31.294Z,1001.05
2018-08-16T01:48:41.096Z,1001.04
2018-08-16T01:49:51.183Z,1001
2018-08-16T01:51:01.279Z,1001.03
2018-08-16T01:52:11.102Z,1001.02
2018-08-16T01:53:21.175Z,1001
2018-08-16T01:54:31.284Z,1000.99
2018-08-16T01:55:41.358Z,1001
2018-08-16T01:56:50.919Z,1000.98
2018-08-16T01:58:01.446Z,1000.98
2018-08-16T01:59:11.562Z,1001
2018-08-16T02:00:21.435Z,1000.99
2018-08-16T02:01:31.231Z,1000.99
2018-08-16T02:02:41.598Z,1001.02
2018-08-16T02:03:51.681Z,1001.04
2018-08-16T02:05:01.488Z,1001.04
2018-08-16T02:06:11.795Z,1001.04
2018-08-16T02:07:21.611Z,1001.06
2018-08-16T02:08:31.705Z,1001.07
2018-08-16T02:09:41.528Z,1001.07
2018-08-16T02:10:51.621Z,1001.13
2018-08-16T02:12:01.697Z,1001.07
2018-08-16T02:13:11.781Z,1001.07
2018-08-16T02:14:21.872Z,1001.1
2018-08-16T02:15:31.993Z,1001.09
2018-08-16T02:16:42.051Z,1001.08
2018-08-16T02:17:52.137Z,1001.09
2018-08-16T02:19:01.414Z,1001.11
2018-08-16T02:20:11.226Z,1001.1
2018-08-16T02:21:21.317Z,1001.1
2018-08-16T02:22:31.378Z,1001.08
2018-08-16T02:23:41.452Z,1001.1
2018-08-16T02:24:51.581Z,1001.07
2018-08-16T02:26:01.399Z,1001.06
2018-08-16T02:27:11.481Z,1001.06
2018-08-16T02:28:21.573Z,1001.09
2018-08-16T02:29:31.648Z,1001.05
2018-08-16T02:30:41.732Z,1001.09
2018-08-16T02:31:51.835Z,1001.08
2018-08-16T02:33:01.949Z,1001.05
2018-08-16T02:34:12.046Z,1001.04
2018-08-16T02:35:22.136Z,1001.06
2018-08-16T02:36:32.228Z,1001.11
2018-08-16T02:37:42.394Z,1001.11
2018-08-16T02:38:52.482Z,1001.08
2018-08-16T02:40:02.612Z,1001.06
2018-08-16T02:41:12.713Z,1001.1
2018-08-16T02:42:22.532Z,1001.09
2018-08-16T02:43:32.709Z,1001.13
2018-08-16T02:44:42.772Z,1001.09
2018-08-16T02:45:52.849Z,1001.15
2018-08-16T02:47:02.931Z,1001.14
2018-08-16T02:48:13.008Z,1001.12
2018-08-16T02:49:23.101Z,1001.13
2018-08-16T02:50:33.175Z,1001.14
2018-08-16T02:51:43.280Z,1001.15
2018-08-16T02:52:53.411Z,1001.11
2018-08-16T02:54:03.640Z,1001.12
2018-08-16T02:55:13.468Z,1001.1
2018-08-16T02:56:23.298Z,1001.09
2018-08-16T02:57:33.407Z,1001.11
2018-08-16T02:58:43.479Z,1001.11
2018-08-16T02:59:53.352Z,1001.08
2018-08-16T03:01:03.410Z,1001.13
2018-08-16T03:02:13.486Z,1001.09
2018-08-16T03:34:56.029Z,1001.12
2018-08-16T03:36:05.840Z,1001.13
2018-08-16T03:37:15.928Z,1001.15
2018-08-16T03:38:26.063Z,1001.16
2018-08-16T03:39:36.156Z,1001.16
2018-08-16T03:40:45.980Z,1001.16
2018-08-16T03:41:56.065Z,1001.15
2018-08-16T03:43:06.147Z,1001.19
2018-08-16T03:44:16.252Z,1001.14
2018-08-16T03:45:26.052Z,1001.13
2018-08-16T03:46:36.188Z,1001.14
2018-08-16T03:47:46.001Z,1001.14
2018-08-16T03:48:55.804Z,1001.19
2018-08-16T03:50:06.120Z,1001.18
2018-08-16T03:51:15.945Z,1001.19
2018-08-16T03:52:26.078Z,1001.2
2018-08-16T03:53:36.132Z,1001.23
2018-08-16T03:54:46.204Z,1001.24
2018-08-16T03:55:56.266Z,1001.24
2018-08-16T03:57:06.336Z,1001.27
2018-08-16T03:58:16.469Z,1001.27
2018-08-16T03:59:26.562Z,1001.24
2018-08-16T04:00:36.617Z,1001.27
2018-08-16T04:01:46.424Z,1001.3
2018-08-16T04:02:56.536Z,1001.33
2018-08-16T04:04:06.631Z,1001.33
2018-08-16T04:05:16.744Z,1001.33
2018-08-16T04:06:26.305Z,1001.33
2018-08-16T04:07:35.888Z,1001.35
2018-08-16T04:08:45.713Z,1001.33
2018-08-16T04:09:55.855Z,1001.33
2018-08-16T04:11:05.978Z,1001.35
2018-08-16T04:12:15.542Z,1001.38
2018-08-16T04:13:25.614Z,1001.36
2018-08-16T04:14:35.690Z,1001.4
2018-08-16T04:15:45.775Z,1001.36
2018-08-16T04:16:55.845Z,1001.4
2018-08-16T04:18:06.121Z,1001.4
2018-08-16T04:19:16.199Z,1001.37
2018-08-16T04:20:26.301Z,1001.37
2018-08-16T04:21:36.161Z,1001.39
2018-08-16T04:22:46.232Z,1001.38
2018-08-16T04:23:56.052Z,1001.41
2018-08-16T04:25:06.139Z,1001.43
2018-08-16T04:26:15.973Z,1001.41
2018-08-16T04:27:25.830Z,1001.41
2018-08-16T04:28:35.923Z,1001.41
2018-08-16T04:29:45.500Z,1001.45
2018-08-16T04:30:55.582Z,1001.51
2018-08-16T04:32:05.653Z,1001.45
2018-08-16T04:33:15.725Z,1001.51
2018-08-16T04:34:25.796Z,1001.51
2018-08-16T04:35:35.995Z,1001.56
2018-08-16T04:36:45.712Z,1001.56
2018-08-16T04:37:55.821Z,1001.54
2018-08-16T04:39:05.692Z,1001.54
2018-08-16T04:40:15.781Z,1001.71
2018-08-16T04:41:25.900Z,1001.78
2018-08-16T04:42:35.649Z,1001.78
2018-08-16T04:43:45.741Z,1001.64
2018-08-16T04:44:55.885Z,1001.57
2018-08-16T04:46:06.002Z,1001.54
2018-08-16T04:47:16.082Z,1001.57
2018-08-16T04:48:26.175Z,1001.57
2018-08-16T04:49:36.484Z,1001.58
2018-08-16T04:50:46.555Z,1001.6
2018-08-16T04:51:56.697Z,1001.59
2018-08-16T04:53:06.823Z,1001.6
2018-08-16T04:54:16.654Z,1001.73
2018-08-16T04:55:26.723Z,1001.91
2018-08-16T04:56:36.876Z,1001.97
2018-08-16T04:57:47.020Z,1002.07
2018-08-16T04:58:57.114Z,1002.08
2018-08-16T05:00:07.180Z,1002.03
2018-08-16T05:01:17.271Z,1002.14
2018-08-16T05:02:27.397Z,1002.07
2018-08-16T05:03:37.484Z,1002.07
2018-08-16T05:04:47.083Z,1002.1
2018-08-16T05:05:56.945Z,1002.14
2018-08-16T05:07:07.049Z,1002.14
2018-08-16T05:08:17.134Z,1002.11
2018-08-16T05:09:26.439Z,1002.09
2018-08-16T05:10:36.515Z,1002.08
2018-08-16T05:11:46.381Z,1002.06
2018-08-16T05:12:56.479Z,1002.06
2018-08-16T05:14:06.572Z,1002.03
2018-08-16T05:15:16.667Z,1002.05
2018-08-16T05:16:26.735Z,1002.06
2018-08-16T05:17:36.836Z,1001.99
2018-08-16T05:18:46.669Z,1002.02
2018-08-16T05:19:56.819Z,1002.01
2018-08-16T05:21:06.931Z,1001.98
2018-08-16T05:22:17.011Z,1002.03
2018-08-16T05:23:27.097Z,1001.97
2018-08-16T05:24:36.918Z,1001.95
2018-08-16T05:25:47.512Z,1001.96
2018-08-16T05:26:57.634Z,1001.96
2018-08-16T05:28:07.720Z,1001.96
2018-08-16T05:29:17.554Z,1001.97
2018-08-16T05:30:27.677Z,1001.98
2018-08-16T05:31:37.812Z,1001.93
2018-08-16T05:32:48.502Z,1001.92
2018-08-16T05:33:58.599Z,1001.93
2018-08-16T05:35:08.735Z,1001.92
2018-08-16T05:36:18.294Z,1001.94
2018-08-16T05:37:28.416Z,1001.94
2018-08-16T05:38:38.486Z,1001.94
2018-08-16T05:39:48.558Z,1001.95
2018-08-16T05:40:58.691Z,1001.9
2018-08-16T05:42:08.531Z,1001.94
2018-08-16T05:43:18.791Z,1001.94
2018-08-16T05:44:29.446Z,1001.94
2018-08-16T05:45:39.528Z,1001.91
2018-08-16T05:46:49.607Z,1001.89
2018-08-16T05:47:59.688Z,1001.89
2018-08-16T05:49:09.284Z,1001.91
2018-08-16T05:50:19.356Z,1001.89
2018-08-16T05:51:29.441Z,1001.93
2018-08-16T05:52:39.522Z,1001.89
2018-08-16T05:53:49.353Z,1001.84
2018-08-16T05:54:59.514Z,1001.67
2018-08-16T05:56:09.589Z,1001.6
2018-08-16T05:57:19.664Z,1001.6
2018-08-16T05:58:29.769Z,1001.62
2018-08-16T05:59:39.581Z,1001.59
2018-08-16T06:00:49.664Z,1001.62
2018-08-16T06:01:59.746Z,1001.66
2018-08-16T06:03:09.807Z,1001.65
2018-08-16T06:04:19.869Z,1001.64
2018-08-16T06:05:29.968Z,1001.65
2018-08-16T06:06:40.043Z,1001.66
2018-08-16T06:07:49.866Z,1001.66
2018-08-16T06:08:59.952Z,1001.67
2018-08-16T06:10:10.033Z,1001.64
2018-08-16T06:11:19.936Z,1001.69
2018-08-16T06:12:30.037Z,1001.65
2018-08-16T06:13:39.584Z,1001.64
2018-08-16T06:14:49.676Z,1001.64
2018-08-16T06:15:59.755Z,1001.67
2018-08-16T06:17:09.836Z,1001.69
2018-08-16T06:18:19.668Z,1001.68
2018-08-16T06:19:29.736Z,1001.68
2018-08-16T06:20:39.803Z,1001.63
2018-08-16T06:21:49.888Z,1001.63
2018-08-16T06:22:59.967Z,1001.63
2018-08-16T06:24:09.732Z,1001.64
2018-08-16T06:25:19.601Z,1001.63
2018-08-16T06:26:29.487Z,1001.62
2018-08-16T06:27:39.058Z,1001.62
2018-08-16T06:28:49.173Z,1001.66
2018-08-16T06:29:58.792Z,1001.6
2018-08-16T06:31:09.013Z,1001.66
2018-08-16T06:32:19.591Z,1001.64
2018-08-16T06:33:29.672Z,1001.64
2018-08-16T06:34:39.493Z,1001.65
2018-08-16T06:35:49.310Z,1001.62
2018-08-16T06:36:59.393Z,1001.66
2018-08-16T06:38:09.213Z,1001.64
2018-08-16T06:39:19.272Z,1001.62
2018-08-16T06:40:29.397Z,1001.6
2018-08-16T06:41:39.468Z,1001.59
2018-08-16T06:42:49.540Z,1001.6
2018-08-16T06:43:59.357Z,1001.59
2018-08-16T06:45:09.443Z,1001.59
2018-08-16T06:46:19.628Z,1001.58
2018-08-16T06:47:30.042Z,1001.56
2018-08-16T06:48:39.850Z,1001.52
2018-08-16T06:49:49.926Z,1001.52
2018-08-16T06:51:00.002Z,1001.54
2018-08-16T06:52:09.829Z,1001.52
2018-08-16T06:53:19.655Z,1001.55
2018-08-16T06:54:29.722Z,1001.58
2018-08-16T06:55:39.805Z,1001.59
2018-08-16T06:56:49.636Z,1001.54
2018-08-16T06:57:59.727Z,1001.56
2018-08-16T06:59:09.947Z,1001.55
2018-08-16T07:00:20.037Z,1001.57
2018-08-16T07:01:30.109Z,1001.57
2018-08-16T07:02:40.180Z,1001.54
2018-08-16T07:03:49.994Z,1001.58
2018-08-16T07:05:00.758Z,1001.56
2018-08-16T07:06:10.916Z,1001.56
2018-08-16T07:07:21.011Z,1001.57
2018-08-16T07:08:31.097Z,1001.54
2018-08-16T07:09:41.217Z,1001.6
2018-08-16T07:10:51.298Z,1001.57
2018-08-16T07:12:01.208Z,1001.61
2018-08-16T07:13:11.182Z,1001.63
2018-08-16T07:14:21.013Z,1001.64
2018-08-16T07:15:31.114Z,1001.66
2018-08-16T07:16:41.308Z,1001.65
2018-08-16T07:17:51.119Z,1001.6
2018-08-16T07:19:01.225Z,1001.64
2018-08-16T07:20:11.322Z,1001.62
2018-08-16T07:21:21.394Z,1001.64
2018-08-16T07:22:31.234Z,1001.64
2018-08-16T07:23:41.293Z,1001.61
2018-08-16T07:24:51.412Z,1001.59
2018-08-16T07:26:01.809Z,1001.56
2018-08-16T07:27:11.901Z,1001.6
2018-08-16T07:28:21.998Z,1001.55
2018-08-16T07:29:32.069Z,1001.57
2018-08-16T07:30:42.140Z,1001.55
2018-08-16T07:31:52.244Z,1001.55
2018-08-16T07:33:02.352Z,1001.55
2018-08-16T07:34:12.202Z,1001.61
2018-08-16T07:35:22.029Z,1001.58
2018-08-16T07:36:31.875Z,1001.61
2018-08-16T07:37:41.944Z,1001.6
2018-08-16T07:38:52.083Z,1001.59
2018-08-16T07:40:01.951Z,1001.58
2018-08-16T07:41:12.050Z,1001.58
2018-08-16T07:42:22.122Z,1001.61
2018-08-16T07:43:32.266Z,1001.64
2018-08-16T07:44:42.344Z,1001.61
2018-08-16T07:45:52.647Z,1001.6
2018-08-16T07:47:02.987Z,1001.59
2018-08-16T07:48:13.095Z,1001.57
2018-08-16T07:49:23.191Z,1001.59
2018-08-16T07:50:33.603Z,1001.57
2018-08-16T07:51:44.079Z,1001.58
2018-08-16T07:52:54.614Z,1001.6
2018-08-16T07:54:04.701Z,1001.6
2018-08-16T07:55:14.514Z,1001.58
2018-08-16T07:56:24.336Z,1001.58
2018-08-16T07:57:34.268Z,1001.57
2018-08-16T07:58:44.094Z,1001.57
2018-08-16T07:59:53.907Z,1001.57
2018-08-16T08:01:03.982Z,1001.57
2018-08-16T08:02:14.072Z,1001.59
2018-08-16T08:03:23.934Z,1001.58
2018-08-16T08:04:34.045Z,1001.56
2018-08-16T08:05:44.115Z,1001.62
2018-08-16T08:06:54.187Z,1001.63
2018-08-16T08:08:04.264Z,1001.6
2018-08-16T08:09:14.507Z,1001.6
2018-08-16T08:10:24.891Z,1001.58
2018-08-16T08:11:34.979Z,1001.61
2018-08-16T08:12:45.065Z,1001.58
2018-08-16T08:13:55.136Z,1001.59
2018-08-16T08:15:05.203Z,1001.59
2018-08-16T08:16:15.288Z,1001.57
2018-08-16T08:17:25.380Z,1001.61
2018-08-16T08:18:35.205Z,1001.58
2018-08-16T08:19:45.026Z,1001.61
2018-08-16T08:20:55.102Z,1001.58
2018-08-16T08:22:05.199Z,1001.53
2018-08-16T08:23:15.282Z,1001.55
2018-08-16T08:24:25.355Z,1001.49
2018-08-16T08:25:35.303Z,1001.46
2018-08-16T08:26:45.262Z,1001.46
2018-08-16T08:27:55.368Z,1001.46
2018-08-16T08:29:05.439Z,1001.45
2018-08-16T08:30:14.996Z,1001.45
2018-08-16T08:31:25.096Z,1001.44
2018-08-16T08:32:35.498Z,1001.47
2018-08-16T08:33:45.783Z,1001.46
2018-08-16T08:34:55.811Z,1001.41
2018-08-16T08:36:06.212Z,1001.43
2018-08-16T08:37:16.650Z,1001.41
2018-08-16T08:38:27.191Z,1001.45
2018-08-16T08:39:37.963Z,1001.41
2018-08-16T08:40:48.478Z,1001.42
2018-08-16T08:41:59.080Z,1001.42
2018-08-16T08:43:09.466Z,1001.38
2018-08-16T08:44:19.813Z,1001.36
2018-08-16T08:45:30.198Z,1001.35
2018-08-16T08:46:40.438Z,1001.34
2018-08-16T08:47:50.508Z,1001.36
2018-08-16T08:49:00.846Z,1001.34
2018-08-16T08:50:11.162Z,1001.32
2018-08-16T08:51:21.763Z,1001.3
2018-08-16T08:52:31.968Z,1001.37
2018-08-16T08:53:41.910Z,1001.35
2018-08-16T08:54:51.994Z,1001.33
2018-08-16T08:56:02.151Z,1001.37
2018-08-16T08:57:12.099Z,1001.32
2018-08-16T08:58:22.306Z,1001.33
2018-08-16T08:59:32.245Z,1001.32
2018-08-16T09:00:42.101Z,1001.3
2018-08-16T09:01:52.394Z,1001.29
2018-08-16T09:03:02.591Z,1001.32
2018-08-16T09:04:12.820Z,1001.32
2018-08-16T09:05:22.996Z,1001.3
2018-08-16T09:06:33.152Z,1001.28
2018-08-16T09:07:43.792Z,1001.29
2018-08-16T09:08:54.137Z,1001.31
2018-08-16T09:10:04.122Z,1001.25
2018-08-16T09:11:14.339Z,1001.28
2018-08-16T09:12:24.683Z,1001.21
2018-08-16T09:13:34.732Z,1001.26
2018-08-16T09:14:45.204Z,1001.23
2018-08-16T09:15:55.368Z,1001.21
2018-08-16T09:17:05.889Z,1001.14
2018-08-16T09:18:16.142Z,1001.13
2018-08-16T09:19:27.301Z,1001.14
2018-08-16T09:20:37.675Z,1001.11
2018-08-16T09:21:47.706Z,1001.11
2018-08-16T09:22:57.689Z,1001.07
2018-08-16T09:24:07.800Z,1001.08
2018-08-16T09:25:18.461Z,1001.11
2018-08-16T09:26:28.830Z,1001.03
2018-08-16T09:27:38.786Z,1001.08
2018-08-16T09:28:49.152Z,1001.04
2018-08-16T09:29:59.246Z,1001.03
2018-08-16T09:31:09.185Z,1001.02
2018-08-16T09:32:19.942Z,1001.03
2018-08-16T09:33:29.776Z,1001.02
2018-08-16T09:34:40.143Z,1000.95
2018-08-16T09:35:50.469Z,1000.97
2018-08-16T09:37:00.850Z,1000.93
2018-08-16T09:38:10.924Z,1000.94
2018-08-16T09:39:21.074Z,1000.91
2018-08-16T09:40:31.772Z,1000.98
2018-08-16T09:41:41.864Z,1000.98
2018-08-16T09:42:52.012Z,1000.99
2018-08-16T09:44:02.108Z,1000.99
2018-08-16T09:45:12.268Z,1000.93
2018-08-16T09:46:22.785Z,1000.92
2018-08-16T09:47:32.886Z,1000.87
2018-08-16T09:48:43.091Z,1000.87
2018-08-16T09:49:53.156Z,1000.88
2018-08-16T09:51:03.429Z,1000.87
2018-08-16T09:52:13.571Z,1000.86
2018-08-16T09:53:23.374Z,1000.8
2018-08-16T09:54:33.688Z,1000.79
2018-08-16T09:55:43.537Z,1000.81
2018-08-16T09:56:53.686Z,1000.81
2018-08-16T09:58:03.529Z,1000.78
2018-08-16T09:59:14.324Z,1000.78
2018-08-16T10:00:25.458Z,1000.76
2018-08-16T10:01:35.554Z,1000.78
2018-08-16T10:02:45.644Z,1000.75
2018-08-16T10:03:55.810Z,1000.81
2018-08-16T10:05:05.901Z,1000.84
2018-08-16T10:06:16.056Z,1000.81
2018-08-16T10:07:26.234Z,1000.81
2018-08-16T10:08:36.322Z,1000.78
2018-08-16T10:09:46.408Z,1000.73
2018-08-16T10:10:56.515Z,1000.75
2018-08-16T10:12:06.628Z,1000.66
2018-08-16T10:13:16.747Z,1000.71
2018-08-16T10:14:26.990Z,1000.69
2018-08-16T10:15:37.143Z,1000.65
2018-08-16T10:16:47.239Z,1000.62
2018-08-16T10:17:57.433Z,1000.57
2018-08-16T10:19:07.261Z,1000.58
2018-08-16T10:20:17.348Z,1000.61
2018-08-16T10:21:27.444Z,1000.59
2018-08-16T10:22:37.522Z,1000.55
2018-08-16T10:23:47.599Z,1000.5
2018-08-16T10:24:57.692Z,1000.62
2018-08-16T10:26:07.275Z,1000.58
2018-08-16T10:27:17.375Z,1000.57
2018-08-16T10:28:27.477Z,1000.47
2018-08-16T10:29:37.374Z,1000.44
2018-08-16T10:30:47.532Z,1000.48
2018-08-16T10:31:57.652Z,1000.51
2018-08-16T10:33:07.748Z,1000.47
2018-08-16T10:34:17.559Z,1000.44
2018-08-16T10:35:27.636Z,1000.42
2018-08-16T10:36:37.733Z,1000.43
2018-08-16T10:37:47.859Z,1000.46
2018-08-16T10:38:57.660Z,1000.42
2018-08-16T10:40:07.862Z,1000.43
2018-08-16T10:41:18.002Z,1000.34
2018-08-16T10:42:28.766Z,1000.26
2018-08-16T10:43:38.854Z,1000.29
2018-08-16T10:44:48.935Z,1000.21
2018-08-16T10:45:59.022Z,1000.25
2018-08-16T10:47:09.109Z,1000.25
2018-08-16T10:48:18.770Z,1000.27
2018-08-16T10:49:29.372Z,1000.24
2018-08-16T10:50:39.437Z,1000.26
2018-08-16T10:51:49.614Z,1000.25
2018-08-16T10:52:59.707Z,1000.26
2018-08-16T10:54:09.803Z,1000.22
2018-08-16T10:55:19.944Z,1000.21
2018-08-16T10:56:29.772Z,1000.2
2018-08-16T10:57:39.962Z,1000.2
2018-08-16T10:58:49.797Z,1000.21
2018-08-16T10:59:59.622Z,1000.17
2018-08-16T11:01:09.587Z,1000.16
2018-08-16T11:02:19.982Z,1000.16
2018-08-16T11:03:30.123Z,1000.19
2018-08-16T11:04:40.251Z,1000.22
2018-08-16T11:05:50.345Z,1000.23
2018-08-16T11:07:00.430Z,1000.19
2018-08-16T11:08:10.527Z,1000.23
2018-08-16T11:09:20.614Z,1000.15
2018-08-16T11:10:30.683Z,1000.17
2018-08-16T11:11:40.255Z,1000.11
2018-08-16T11:12:50.431Z,1000.13
2018-08-16T11:14:00.914Z,1000.12
2018-08-16T11:15:11.058Z,1000.13
2018-08-16T11:16:20.923Z,1000.11
2018-08-16T11:17:30.997Z,1000.12
2018-08-16T11:18:41.412Z,1000.13
2018-08-16T11:19:51.771Z,1000.1
2018-08-16T11:21:01.863Z,1000.06
2018-08-16T11:22:11.424Z,1000.09
2018-08-16T11:23:21.529Z,1000.11
2018-08-16T11:24:31.616Z,1000.04
2018-08-16T11:25:41.449Z,1000.06
2018-08-16T11:26:51.541Z,1000.02
2018-08-16T11:28:01.643Z,999.96
2018-08-16T11:29:11.731Z,1000
2018-08-16T11:30:22.091Z,999.96
2018-08-16T11:31:32.182Z,999.97
2018-08-16T11:32:42.338Z,999.96
2018-08-16T11:33:52.433Z,999.95
2018-08-16T11:35:02.540Z,999.92
2018-08-16T11:36:13.350Z,999.87
2018-08-16T11:37:23.454Z,999.94
2018-08-16T11:38:33.299Z,999.93
2018-08-16T11:39:43.407Z,999.9
2018-08-16T11:40:53.504Z,999.87
2018-08-16T11:42:03.843Z,999.86
2018-08-16T11:43:13.922Z,999.89
2018-08-16T11:44:24.115Z,999.84
2018-08-16T11:45:33.972Z,999.83
2018-08-16T11:46:43.626Z,999.86
2018-08-16T11:47:53.739Z,999.85
2018-08-16T11:49:03.868Z,999.89
2018-08-16T11:50:14.196Z,999.89
2018-08-16T11:51:24.353Z,999.87
2018-08-16T11:52:34.800Z,999.83
2018-08-16T11:53:45.574Z,999.86
2018-08-16T11:54:55.905Z,999.84
2018-08-16T11:56:06.159Z,999.85
2018-08-16T11:57:16.545Z,999.74
2018-08-16T11:58:26.829Z,999.77
2018-08-16T11:59:37.404Z,999.78
2018-08-16T12:00:47.790Z,999.79
2018-08-16T12:01:58.058Z,999.76
2018-08-16T12:03:08.989Z,999.78
2018-08-16T12:04:19.134Z,999.76
2018-08-16T12:05:29.471Z,999.74
2018-08-16T12:06:39.935Z,999.71
2018-08-16T12:07:50.480Z,999.7
2018-08-16T12:09:00.931Z,999.7
2018-08-16T12:10:11.457Z,999.74
2018-08-16T12:11:22.071Z,999.67
2018-08-16T12:12:32.837Z,999.68
2018-08-16T12:13:43.031Z,999.69
2018-08-16T12:14:53.698Z,999.69
2018-08-16T12:16:04.178Z,999.7
2018-08-16T12:17:14.443Z,999.65
2018-08-16T12:18:25.126Z,999.61
2018-08-16T12:19:35.144Z,999.7
2018-08-16T12:20:45.494Z,999.65
2018-08-16T12:21:56.081Z,999.57
2018-08-16T12:23:06.543Z,999.54
2018-08-16T12:24:15.784Z,999.63
2018-08-16T12:25:26.104Z,999.54
2018-08-16T12:26:36.410Z,999.52
2018-08-16T12:27:47.011Z,999.57
2018-08-16T12:28:57.468Z,999.58
2018-08-16T12:30:07.910Z,999.57
2018-08-16T12:31:18.423Z,999.6
2018-08-16T12:32:28.571Z,999.55
2018-08-16T12:33:38.393Z,999.52
2018-08-16T12:34:48.334Z,999.48
2018-08-16T12:35:58.689Z,999.49
2018-08-16T12:37:08.266Z,999.49
2018-08-16T12:38:18.370Z,999.44
2018-08-16T12:39:28.511Z,999.42
2018-08-16T12:40:38.408Z,999.38
2018-08-16T12:41:52.363Z,999.36
2018-08-16T12:43:02.523Z,999.36
2018-08-16T12:44:12.642Z,999.38
2018-08-16T12:45:22.230Z,999.35
2018-08-16T12:46:32.320Z,999.35
2018-08-16T12:47:42.492Z,999.3
2018-08-16T12:48:53.173Z,999.28
2018-08-16T12:50:03.623Z,999.26
2018-08-16T12:51:13.998Z,999.26
2018-08-16T12:52:24.109Z,999.22
2018-08-16T12:53:34.204Z,999.23
2018-08-16T12:54:44.714Z,999.17
2018-08-16T12:55:54.590Z,999.19
2018-08-16T12:57:04.734Z,999.19
2018-08-16T12:58:14.818Z,999.18
2018-08-16T12:59:24.943Z,999.13
2018-08-16T13:00:35.038Z,999.15
2018-08-16T13:01:44.882Z,999.09
2018-08-16T13:02:55.454Z,999.06
2018-08-16T13:04:06.166Z,999.03
2018-08-16T13:05:16.075Z,999.08
2018-08-16T13:06:25.960Z,999.06
2018-08-16T13:07:36.069Z,999.05
2018-08-16T13:08:46.287Z,999.01
2018-08-16T13:09:56.796Z,999.05
2018-08-16T13:11:06.893Z,999.07
2018-08-16T13:12:17.084Z,999.04
2018-08-16T13:13:27.163Z,999.06
2018-08-16T13:14:37.243Z,999.04
2018-08-16T13:15:47.342Z,998.98
2018-08-16T13:16:57.683Z,998.96
2018-08-16T13:18:07.814Z,998.97
2018-08-16T13:19:17.920Z,998.93
2018-08-16T13:20:28.073Z,998.9
2018-08-16T13:21:37.905Z,998.91
2018-08-16T13:22:47.735Z,998.89
2018-08-16T13:23:57.905Z,998.88
2018-08-16T13:25:07.851Z,998.87
2018-08-16T13:26:17.692Z,998.89
2018-08-16T13:27:27.550Z,998.88
2018-08-16T13:28:37.690Z,998.85
2018-08-16T13:29:47.508Z,998.84
2018-08-16T13:30:57.685Z,998.87
2018-08-16T13:32:07.953Z,998.81
2018-08-16T13:33:18.058Z,998.84
2018-08-16T13:34:28.129Z,998.85
2018-08-16T13:35:38.225Z,998.81
2018-08-16T13:36:48.319Z,998.84
2018-08-16T13:37:58.496Z,998.83
2018-08-16T13:39:08.719Z,998.83
2018-08-16T13:40:18.540Z,998.83
2018-08-16T13:41:28.634Z,998.85
2018-08-16T13:42:38.762Z,998.84
2018-08-16T13:43:48.859Z,998.82
2018-08-16T13:44:59.000Z,998.78
2018-08-16T13:46:08.827Z,998.76
2018-08-16T13:47:18.921Z,998.76
2018-08-16T13:48:29.103Z,998.73
2018-08-16T13:49:39.805Z,998.7
2018-08-16T13:50:49.895Z,998.73
2018-08-16T13:52:00.142Z,998.72
2018-08-16T13:53:10.236Z,998.73
2018-08-16T13:54:20.098Z,998.75
2018-08-16T13:55:30.185Z,998.73
2018-08-16T13:56:40.357Z,998.69
2018-08-16T13:57:50.521Z,998.71
2018-08-16T13:59:00.640Z,998.66
2018-08-16T14:00:10.749Z,998.7
2018-08-16T14:01:20.583Z,998.7
2018-08-16T14:02:30.715Z,998.71
2018-08-16T14:03:40.910Z,998.7
2018-08-16T14:04:50.472Z,998.68
2018-08-16T14:06:00.623Z,998.64
2018-08-16T14:07:10.754Z,998.67
2018-08-16T14:08:21.129Z,998.64
2018-08-16T14:09:31.736Z,998.63
2018-08-16T14:10:42.155Z,998.65
2018-08-16T14:11:52.334Z,998.62
2018-08-16T14:13:02.453Z,998.62
2018-08-16T14:14:12.886Z,998.6
2018-08-16T14:15:23.125Z,998.59
2018-08-16T14:16:33.288Z,998.55
2018-08-16T14:17:43.399Z,998.58
2018-08-16T14:18:53.532Z,998.57
2018-08-16T14:20:03.651Z,998.54
2018-08-16T14:21:13.567Z,998.5
2018-08-16T14:22:23.662Z,998.46
2018-08-16T14:23:33.812Z,998.46
2018-08-16T14:24:43.928Z,998.48
2018-08-16T14:25:54.048Z,998.45
2018-08-16T14:27:05.395Z,998.44
2018-08-16T14:28:15.518Z,998.44
2018-08-16T14:29:25.663Z,998.42
2018-08-16T14:30:35.539Z,998.38
2018-08-16T14:31:45.647Z,998.42
2018-08-16T14:32:55.543Z,998.38
2018-08-16T14:34:05.722Z,998.39
2018-08-16T14:35:15.318Z,998.34
2018-08-16T14:36:24.631Z,998.37
2018-08-16T14:37:34.772Z,998.34
2018-08-16T14:38:44.945Z,998.35
2018-08-16T14:39:55.662Z,998.32
2018-08-16T14:41:05.777Z,998.35
2018-08-16T14:42:15.904Z,998.3
2018-08-16T14:43:26.025Z,998.28
2018-08-16T14:44:36.177Z,998.28
2018-08-16T14:45:46.034Z,998.29
2018-08-16T14:46:55.867Z,998.27
2018-08-16T14:48:06.102Z,998.23